sensor_id;sensor_type;location;lat;lon;timestamp;temperature;humidity
296;DHT22;132;48.770;9.200;2023-02-01T00:00:28;4.30;1.00
296;DHT22;132;48.770;9.200;2023-02-01T00:02:55;4.30;1.00
296;DHT22;132;48.770;9.200;2023-02-01T00:05:21;4.30;1.00
296;DHT22;132;48.770;9.200;2023-02-01T00:07:48;4.30;1.00
296;DHT22;132;48.770;9.200;2023-02-01T00:10:15;4.30;1.00
296;DHT22;132;48.770;9.200;2023-02-01T00:12:41;4.30;1.00
296;DHT22;132;48.770;9.200;2023-02-01T00:15:08;4.30;1.00
296;DHT22;132;48.770;9.200;2023-02-01T00:17:35;4.30;1.00
296;DHT22;132;48.770;9.200;2023-02-01T00:20:01;4.30;1.00
296;DHT22;132;48.770;9.200;2023-02-01T00:22:29;5.00;1.00
296;DHT22;132;48.770;9.200;2023-02-01T00:24:55;4.30;1.00
296;DHT22;132;48.770;9.200;2023-02-01T00:27:21;4.30;1.00
296;DHT22;132;48.770;9.200;2023-02-01T00:29:48;4.30;1.00
296;DHT22;132;48.770;9.200;2023-02-01T00:32:14;4.40;1.00
296;DHT22;132;48.770;9.200;2023-02-01T00:34:41;4.30;1.00
296;DHT22;132;48.770;9.200;2023-02-01T00:37:07;4.30;1.00
296;DHT22;132;48.770;9.200;2023-02-01T00:39:33;4.40;1.00
296;DHT22;132;48.770;9.200;2023-02-01T00:42:00;4.40;1.00
296;DHT22;132;48.770;9.200;2023-02-01T00:44:28;4.50;1.00
296;DHT22;132;48.770;9.200;2023-02-01T00:46:59;4.40;1.00
296;DHT22;132;48.770;9.200;2023-02-01T00:49:26;4.40;1.00
296;DHT22;132;48.770;9.200;2023-02-01T00:51:53;4.40;1.00
296;DHT22;132;48.770;9.200;2023-02-01T00:54:19;4.40;1.00
296;DHT22;132;48.770;9.200;2023-02-01T00:56:45;4.40;1.00
296;DHT22;132;48.770;9.200;2023-02-01T00:59:12;4.40;1.00
296;DHT22;132;48.770;9.200;2023-02-01T01:01:39;4.50;1.00
296;DHT22;132;48.770;9.200;2023-02-01T01:04:05;4.50;1.00
296;DHT22;132;48.770;9.200;2023-02-01T01:06:33;4.50;1.00
296;DHT22;132;48.770;9.200;2023-02-01T01:09:03;4.50;1.00
296;DHT22;132;48.770;9.200;2023-02-01T01:11:32;4.50;1.00
296;DHT22;132;48.770;9.200;2023-02-01T01:13:59;4.50;1.00
296;DHT22;132;48.770;9.200;2023-02-01T01:16:27;4.50;1.00
296;DHT22;132;48.770;9.200;2023-02-01T01:18:55;4.50;1.00
296;DHT22;132;48.770;9.200;2023-02-01T01:21:22;4.50;1.00
296;DHT22;132;48.770;9.200;2023-02-01T01:23:48;4.50;1.00
296;DHT22;132;48.770;9.200;2023-02-01T01:26:23;4.40;1.00
296;DHT22;132;48.770;9.200;2023-02-01T01:28:50;5.00;1.00
296;DHT22;132;48.770;9.200;2023-02-01T01:31:19;4.40;1.00
296;DHT22;132;48.770;9.200;2023-02-01T01:33:54;4.50;1.00
296;DHT22;132;48.770;9.200;2023-02-01T01:36:21;4.50;1.00
296;DHT22;132;48.770;9.200;2023-02-01T01:38:48;5.10;1.00
296;DHT22;132;48.770;9.200;2023-02-01T01:41:18;4.50;1.00
296;DHT22;132;48.770;9.200;2023-02-01T01:46:20;4.50;1.00
296;DHT22;132;48.770;9.200;2023-02-01T01:49:36;4.60;1.00
296;DHT22;132;48.770;9.200;2023-02-01T01:51:47;4.50;1.00
296;DHT22;132;48.770;9.200;2023-02-01T01:54:31;4.50;1.00
296;DHT22;132;48.770;9.200;2023-02-01T01:57:14;4.60;1.00
296;DHT22;132;48.770;9.200;2023-02-01T01:59:47;4.60;1.00
296;DHT22;132;48.770;9.200;2023-02-01T02:02:16;4.60;1.00
296;DHT22;132;48.770;9.200;2023-02-01T02:04:43;4.50;1.00
296;DHT22;132;48.770;9.200;2023-02-01T02:07:19;4.50;1.00
296;DHT22;132;48.770;9.200;2023-02-01T02:09:47;4.50;1.00
296;DHT22;132;48.770;9.200;2023-02-01T02:12:13;4.50;1.00
296;DHT22;132;48.770;9.200;2023-02-01T02:14:40;4.50;1.00
296;DHT22;132;48.770;9.200;2023-02-01T02:39:36;4.50;1.00
296;DHT22;132;48.770;9.200;2023-02-01T02:42:19;4.60;1.00
296;DHT22;132;48.770;9.200;2023-02-01T02:45:16;4.60;1.00
296;DHT22;132;48.770;9.200;2023-02-01T02:48:20;4.60;1.00
296;DHT22;132;48.770;9.200;2023-02-01T02:54:14;4.60;1.00
296;DHT22;132;48.770;9.200;2023-02-01T02:57:03;4.60;1.00
296;DHT22;132;48.770;9.200;2023-02-01T02:59:48;4.60;1.00
296;DHT22;132;48.770;9.200;2023-02-01T03:02:34;4.50;1.00
296;DHT22;132;48.770;9.200;2023-02-01T03:05:19;4.60;1.00
296;DHT22;132;48.770;9.200;2023-02-01T03:08:01;4.60;1.00
296;DHT22;132;48.770;9.200;2023-02-01T03:16:24;4.50;1.00
296;DHT22;132;48.770;9.200;2023-02-01T03:24:32;4.50;1.00
296;DHT22;132;48.770;9.200;2023-02-01T03:27:23;4.50;1.00
296;DHT22;132;48.770;9.200;2023-02-01T03:30:03;4.60;1.00
296;DHT22;132;48.770;9.200;2023-02-01T03:32:34;4.50;1.00
296;DHT22;132;48.770;9.200;2023-02-01T03:35:30;4.50;1.00
296;DHT22;132;48.770;9.200;2023-02-01T03:38:20;4.60;1.00
296;DHT22;132;48.770;9.200;2023-02-01T03:40:52;4.60;1.00
296;DHT22;132;48.770;9.200;2023-02-01T03:43:21;4.60;1.00
296;DHT22;132;48.770;9.200;2023-02-01T03:45:54;4.60;1.00
296;DHT22;132;48.770;9.200;2023-02-01T03:48:26;4.60;1.00
296;DHT22;132;48.770;9.200;2023-02-01T03:50:56;5.10;1.00
296;DHT22;132;48.770;9.200;2023-02-01T03:53:25;4.60;1.00
296;DHT22;132;48.770;9.200;2023-02-01T03:55:53;4.60;1.00
296;DHT22;132;48.770;9.200;2023-02-01T03:58:22;4.60;1.00
296;DHT22;132;48.770;9.200;2023-02-01T04:00:57;4.60;1.00
296;DHT22;132;48.770;9.200;2023-02-01T04:03:25;4.60;1.00
296;DHT22;132;48.770;9.200;2023-02-01T04:05:52;4.60;1.00
296;DHT22;132;48.770;9.200;2023-02-01T04:08:23;4.60;1.00
296;DHT22;132;48.770;9.200;2023-02-01T04:10:49;4.60;1.00
296;DHT22;132;48.770;9.200;2023-02-01T04:13:16;4.60;1.00
296;DHT22;132;48.770;9.200;2023-02-01T04:15:42;4.60;1.00
296;DHT22;132;48.770;9.200;2023-02-01T04:18:09;4.60;1.00
296;DHT22;132;48.770;9.200;2023-02-01T04:20:35;4.60;1.00
296;DHT22;132;48.770;9.200;2023-02-01T04:23:02;4.70;1.00
296;DHT22;132;48.770;9.200;2023-02-01T04:25:29;4.60;1.00
296;DHT22;132;48.770;9.200;2023-02-01T04:27:55;4.60;1.00
296;DHT22;132;48.770;9.200;2023-02-01T04:30:22;4.60;1.00
296;DHT22;132;48.770;9.200;2023-02-01T04:32:50;5.80;1.00
296;DHT22;132;48.770;9.200;2023-02-01T04:35:16;4.70;1.00
296;DHT22;132;48.770;9.200;2023-02-01T04:37:43;5.70;1.00
296;DHT22;132;48.770;9.200;2023-02-01T04:40:10;4.60;1.00
296;DHT22;132;48.770;9.200;2023-02-01T04:42:37;4.60;1.00
296;DHT22;132;48.770;9.200;2023-02-01T04:45:03;4.60;1.00
296;DHT22;132;48.770;9.200;2023-02-01T04:47:30;4.60;1.00
296;DHT22;132;48.770;9.200;2023-02-01T04:49:56;4.60;1.00
296;DHT22;132;48.770;9.200;2023-02-01T04:52:23;4.70;1.00
296;DHT22;132;48.770;9.200;2023-02-01T04:54:49;5.30;1.00
296;DHT22;132;48.770;9.200;2023-02-01T04:57:15;4.70;1.00
296;DHT22;132;48.770;9.200;2023-02-01T04:59:42;4.70;1.00
296;DHT22;132;48.770;9.200;2023-02-01T05:02:08;4.80;1.00
296;DHT22;132;48.770;9.200;2023-02-01T05:04:34;4.80;1.00
296;DHT22;132;48.770;9.200;2023-02-01T05:07:01;4.80;1.00
296;DHT22;132;48.770;9.200;2023-02-01T05:09:27;4.80;1.00
296;DHT22;132;48.770;9.200;2023-02-01T05:11:53;4.80;1.00
296;DHT22;132;48.770;9.200;2023-02-01T05:14:38;4.80;1.00
296;DHT22;132;48.770;9.200;2023-02-01T05:17:04;4.80;1.00
296;DHT22;132;48.770;9.200;2023-02-01T05:19:31;4.80;1.00
296;DHT22;132;48.770;9.200;2023-02-01T05:21:57;4.90;1.00
296;DHT22;132;48.770;9.200;2023-02-01T05:24:24;4.90;1.00
296;DHT22;132;48.770;9.200;2023-02-01T05:26:50;4.90;1.00
296;DHT22;132;48.770;9.200;2023-02-01T05:29:17;5.00;1.00
296;DHT22;132;48.770;9.200;2023-02-01T05:31:45;5.00;1.00
296;DHT22;132;48.770;9.200;2023-02-01T05:34:11;5.00;1.00
296;DHT22;132;48.770;9.200;2023-02-01T05:36:38;5.10;1.00
296;DHT22;132;48.770;9.200;2023-02-01T05:39:04;5.00;1.00
296;DHT22;132;48.770;9.200;2023-02-01T05:41:30;5.00;1.00
296;DHT22;132;48.770;9.200;2023-02-01T05:43:57;5.00;1.00
296;DHT22;132;48.770;9.200;2023-02-01T05:46:23;5.00;1.00
296;DHT22;132;48.770;9.200;2023-02-01T05:48:50;5.00;1.00
296;DHT22;132;48.770;9.200;2023-02-01T05:51:16;5.00;1.00
296;DHT22;132;48.770;9.200;2023-02-01T05:53:42;5.00;1.00
296;DHT22;132;48.770;9.200;2023-02-01T05:56:09;5.10;1.00
296;DHT22;132;48.770;9.200;2023-02-01T05:58:35;5.00;1.00
296;DHT22;132;48.770;9.200;2023-02-01T06:01:02;5.00;1.00
296;DHT22;132;48.770;9.200;2023-02-01T06:03:29;5.10;1.00
296;DHT22;132;48.770;9.200;2023-02-01T06:05:55;4.80;1.00
296;DHT22;132;48.770;9.200;2023-02-01T06:08:22;4.80;1.00
296;DHT22;132;48.770;9.200;2023-02-01T06:11:00;4.70;1.00
296;DHT22;132;48.770;9.200;2023-02-01T06:13:27;4.60;1.00
296;DHT22;132;48.770;9.200;2023-02-01T06:15:54;4.50;1.00
296;DHT22;132;48.770;9.200;2023-02-01T06:18:21;4.50;1.00
296;DHT22;132;48.770;9.200;2023-02-01T06:20:55;4.50;1.00
296;DHT22;132;48.770;9.200;2023-02-01T06:23:22;4.50;1.00
296;DHT22;132;48.770;9.200;2023-02-01T06:25:51;4.50;1.00
296;DHT22;132;48.770;9.200;2023-02-01T06:28:18;4.50;1.00
296;DHT22;132;48.770;9.200;2023-02-01T06:30:45;4.60;1.00
296;DHT22;132;48.770;9.200;2023-02-01T06:33:13;4.60;1.00
296;DHT22;132;48.770;9.200;2023-02-01T06:35:44;4.70;1.00
296;DHT22;132;48.770;9.200;2023-02-01T06:38:11;4.80;1.00
296;DHT22;132;48.770;9.200;2023-02-01T06:40:38;4.70;1.00
296;DHT22;132;48.770;9.200;2023-02-01T06:43:05;4.80;1.00
296;DHT22;132;48.770;9.200;2023-02-01T06:45:31;4.80;1.00
296;DHT22;132;48.770;9.200;2023-02-01T06:47:58;4.80;1.00
296;DHT22;132;48.770;9.200;2023-02-01T06:50:27;4.90;1.00
296;DHT22;132;48.770;9.200;2023-02-01T06:52:53;4.90;1.00
296;DHT22;132;48.770;9.200;2023-02-01T06:55:20;4.90;1.00
296;DHT22;132;48.770;9.200;2023-02-01T06:57:46;4.80;1.00
296;DHT22;132;48.770;9.200;2023-02-01T07:00:13;4.90;1.00
296;DHT22;132;48.770;9.200;2023-02-01T07:02:39;4.90;1.00
296;DHT22;132;48.770;9.200;2023-02-01T07:05:05;4.90;1.00
296;DHT22;132;48.770;9.200;2023-02-01T07:07:32;5.00;1.00
296;DHT22;132;48.770;9.200;2023-02-01T07:09:58;5.00;1.00
296;DHT22;132;48.770;9.200;2023-02-01T07:12:24;5.00;1.00
296;DHT22;132;48.770;9.200;2023-02-01T07:14:51;5.10;1.00
296;DHT22;132;48.770;9.200;2023-02-01T07:17:17;5.10;1.00
296;DHT22;132;48.770;9.200;2023-02-01T07:19:43;5.10;1.00
296;DHT22;132;48.770;9.200;2023-02-01T07:22:10;5.10;1.00
296;DHT22;132;48.770;9.200;2023-02-01T07:24:36;5.20;1.00
296;DHT22;132;48.770;9.200;2023-02-01T07:27:02;5.20;1.00
296;DHT22;132;48.770;9.200;2023-02-01T07:29:29;5.20;1.00
296;DHT22;132;48.770;9.200;2023-02-01T07:31:55;5.20;1.00
296;DHT22;132;48.770;9.200;2023-02-01T07:34:21;5.20;1.00
296;DHT22;132;48.770;9.200;2023-02-01T07:36:48;5.20;1.00
296;DHT22;132;48.770;9.200;2023-02-01T07:39:14;5.20;1.00
296;DHT22;132;48.770;9.200;2023-02-01T07:41:40;5.30;1.00
296;DHT22;132;48.770;9.200;2023-02-01T07:44:07;5.30;1.00
296;DHT22;132;48.770;9.200;2023-02-01T07:46:33;5.30;1.00
296;DHT22;132;48.770;9.200;2023-02-01T07:48:59;5.30;1.00
296;DHT22;132;48.770;9.200;2023-02-01T07:51:26;5.30;1.00
296;DHT22;132;48.770;9.200;2023-02-01T07:53:52;6.50;1.00
296;DHT22;132;48.770;9.200;2023-02-01T07:56:20;5.40;1.00
296;DHT22;132;48.770;9.200;2023-02-01T07:58:50;5.40;1.00
296;DHT22;132;48.770;9.200;2023-02-01T08:01:22;5.50;1.00
296;DHT22;132;48.770;9.200;2023-02-01T08:03:54;5.50;1.00
296;DHT22;132;48.770;9.200;2023-02-01T08:06:21;5.50;1.00
296;DHT22;132;48.770;9.200;2023-02-01T08:08:51;5.50;1.00
296;DHT22;132;48.770;9.200;2023-02-01T08:11:19;5.00;1.00
296;DHT22;132;48.770;9.200;2023-02-01T08:13:46;5.60;1.00
296;DHT22;132;48.770;9.200;2023-02-01T08:16:15;5.70;1.00
296;DHT22;132;48.770;9.200;2023-02-01T08:18:42;5.60;1.00
296;DHT22;132;48.770;9.200;2023-02-01T08:21:17;5.60;1.00
296;DHT22;132;48.770;9.200;2023-02-01T08:23:44;5.70;1.00
296;DHT22;132;48.770;9.200;2023-02-01T08:26:22;5.60;1.00
296;DHT22;132;48.770;9.200;2023-02-01T08:28:58;5.70;1.00
296;DHT22;132;48.770;9.200;2023-02-01T08:31:27;5.70;1.00
296;DHT22;132;48.770;9.200;2023-02-01T08:33:56;6.30;1.00
296;DHT22;132;48.770;9.200;2023-02-01T08:36:24;5.80;1.00
296;DHT22;132;48.770;9.200;2023-02-01T08:38:51;5.80;1.00
296;DHT22;132;48.770;9.200;2023-02-01T08:41:19;5.90;1.00
296;DHT22;132;48.770;9.200;2023-02-01T08:43:47;6.60;1.00
296;DHT22;132;48.770;9.200;2023-02-01T08:46:14;6.00;1.00
296;DHT22;132;48.770;9.200;2023-02-01T08:48:41;6.10;1.00
296;DHT22;132;48.770;9.200;2023-02-01T08:51:09;6.20;1.00
296;DHT22;132;48.770;9.200;2023-02-01T08:53:37;6.20;1.00
296;DHT22;132;48.770;9.200;2023-02-01T08:56:06;6.20;1.00
296;DHT22;132;48.770;9.200;2023-02-01T08:58:33;6.20;1.00
296;DHT22;132;48.770;9.200;2023-02-01T09:01:07;6.10;1.00
296;DHT22;132;48.770;9.200;2023-02-01T09:03:34;6.20;1.00
296;DHT22;132;48.770;9.200;2023-02-01T09:06:08;6.10;1.00
296;DHT22;132;48.770;9.200;2023-02-01T09:08:36;6.20;1.00
296;DHT22;132;48.770;9.200;2023-02-01T09:11:05;6.10;1.00
296;DHT22;132;48.770;9.200;2023-02-01T09:13:32;6.10;1.00
296;DHT22;132;48.770;9.200;2023-02-01T09:15:59;6.10;1.00
296;DHT22;132;48.770;9.200;2023-02-01T09:18:26;6.10;1.00
296;DHT22;132;48.770;9.200;2023-02-01T09:20:52;5.90;1.00
296;DHT22;132;48.770;9.200;2023-02-01T09:23:19;6.10;1.00
296;DHT22;132;48.770;9.200;2023-02-01T09:25:47;5.50;1.00
296;DHT22;132;48.770;9.200;2023-02-01T09:28:16;6.10;1.00
296;DHT22;132;48.770;9.200;2023-02-01T09:30:43;6.10;1.00
296;DHT22;132;48.770;9.200;2023-02-01T09:33:09;6.20;1.00
296;DHT22;132;48.770;9.200;2023-02-01T09:35:36;6.30;1.00
296;DHT22;132;48.770;9.200;2023-02-01T09:38:02;6.40;1.00
296;DHT22;132;48.770;9.200;2023-02-01T09:40:28;6.50;1.00
296;DHT22;132;48.770;9.200;2023-02-01T09:46:02;6.60;1.00
296;DHT22;132;48.770;9.200;2023-02-01T09:48:34;5.60;1.00
296;DHT22;132;48.770;9.200;2023-02-01T09:51:04;6.50;1.00
296;DHT22;132;48.770;9.200;2023-02-01T09:56:07;7.00;1.00
296;DHT22;132;48.770;9.200;2023-02-01T09:58:44;7.10;1.00
296;DHT22;132;48.770;9.200;2023-02-01T10:01:23;7.00;1.00
296;DHT22;132;48.770;9.200;2023-02-01T10:03:53;7.00;1.00
296;DHT22;132;48.770;9.200;2023-02-01T10:06:36;7.00;1.00
296;DHT22;132;48.770;9.200;2023-02-01T10:20:10;6.90;1.00
296;DHT22;132;48.770;9.200;2023-02-01T10:28:14;7.10;1.00
296;DHT22;132;48.770;9.200;2023-02-01T10:30:45;7.10;1.00
296;DHT22;132;48.770;9.200;2023-02-01T10:35:45;7.20;1.00
296;DHT22;132;48.770;9.200;2023-02-01T10:38:38;7.30;1.00
296;DHT22;132;48.770;9.200;2023-02-01T10:41:28;7.40;1.00
296;DHT22;132;48.770;9.200;2023-02-01T10:43:58;7.40;1.00
296;DHT22;132;48.770;9.200;2023-02-01T10:46:26;7.40;1.00
296;DHT22;132;48.770;9.200;2023-02-01T10:48:55;7.40;1.00
296;DHT22;132;48.770;9.200;2023-02-01T10:51:30;7.40;1.00
296;DHT22;132;48.770;9.200;2023-02-01T10:54:16;7.50;1.00
296;DHT22;132;48.770;9.200;2023-02-01T10:56:47;7.50;1.00
296;DHT22;132;48.770;9.200;2023-02-01T10:59:18;7.50;1.00
296;DHT22;132;48.770;9.200;2023-02-01T11:01:47;7.60;1.00
296;DHT22;132;48.770;9.200;2023-02-01T11:04:19;7.50;1.00
296;DHT22;132;48.770;9.200;2023-02-01T11:06:53;7.50;1.00
296;DHT22;132;48.770;9.200;2023-02-01T11:09:22;7.80;1.00
296;DHT22;132;48.770;9.200;2023-02-01T11:14:19;7.40;1.00
296;DHT22;132;48.770;9.200;2023-02-01T11:16:52;7.70;1.00
296;DHT22;132;48.770;9.200;2023-02-01T11:19:20;7.40;1.00
296;DHT22;132;48.770;9.200;2023-02-01T11:21:51;7.40;1.00
296;DHT22;132;48.770;9.200;2023-02-01T11:24:47;7.40;1.00
296;DHT22;132;48.770;9.200;2023-02-01T11:27:17;7.30;1.00
296;DHT22;132;48.770;9.200;2023-02-01T11:29:47;7.20;1.00
296;DHT22;132;48.770;9.200;2023-02-01T11:32:17;7.20;1.00
296;DHT22;132;48.770;9.200;2023-02-01T11:34:51;7.20;1.00
296;DHT22;132;48.770;9.200;2023-02-01T11:37:35;7.40;1.00
296;DHT22;132;48.770;9.200;2023-02-01T11:40:25;7.50;1.00
296;DHT22;132;48.770;9.200;2023-02-01T11:43:00;7.40;1.00
296;DHT22;132;48.770;9.200;2023-02-01T11:45:31;7.60;1.00
296;DHT22;132;48.770;9.200;2023-02-01T11:48:00;7.50;1.00
296;DHT22;132;48.770;9.200;2023-02-01T11:50:42;7.50;1.00
296;DHT22;132;48.770;9.200;2023-02-01T12:01:32;7.60;1.00
296;DHT22;132;48.770;9.200;2023-02-01T12:06:55;7.70;1.00
296;DHT22;132;48.770;9.200;2023-02-01T12:12:31;7.50;1.00
296;DHT22;132;48.770;9.200;2023-02-01T12:21:12;7.20;1.00
296;DHT22;132;48.770;9.200;2023-02-01T12:26:41;7.30;1.00
296;DHT22;132;48.770;9.200;2023-02-01T12:35:09;7.20;1.00
296;DHT22;132;48.770;9.200;2023-02-01T12:43:42;7.00;1.00
296;DHT22;132;48.770;9.200;2023-02-01T12:49:22;6.90;1.00
296;DHT22;132;48.770;9.200;2023-02-01T12:51:57;6.80;1.00
296;DHT22;132;48.770;9.200;2023-02-01T12:54:35;7.00;1.00
296;DHT22;132;48.770;9.200;2023-02-01T12:57:11;6.80;1.00
296;DHT22;132;48.770;9.200;2023-02-01T12:59:53;6.80;1.00
296;DHT22;132;48.770;9.200;2023-02-01T13:05:19;6.70;1.00
296;DHT22;132;48.770;9.200;2023-02-01T13:08:08;6.70;1.00
296;DHT22;132;48.770;9.200;2023-02-01T13:10:39;6.70;1.00
296;DHT22;132;48.770;9.200;2023-02-01T13:13:12;6.60;1.00
296;DHT22;132;48.770;9.200;2023-02-01T13:16:17;6.60;1.00
296;DHT22;132;48.770;9.200;2023-02-01T13:18:50;6.60;1.00
296;DHT22;132;48.770;9.200;2023-02-01T13:21:24;6.60;1.00
296;DHT22;132;48.770;9.200;2023-02-01T13:23:52;6.70;1.00
296;DHT22;132;48.770;9.200;2023-02-01T13:26:19;6.70;1.00
296;DHT22;132;48.770;9.200;2023-02-01T13:28:53;6.80;1.00
296;DHT22;132;48.770;9.200;2023-02-01T13:45:19;7.00;1.00
296;DHT22;132;48.770;9.200;2023-02-01T13:47:49;6.90;1.00
296;DHT22;132;48.770;9.200;2023-02-01T13:50:29;6.90;1.00
296;DHT22;132;48.770;9.200;2023-02-01T13:55:36;6.80;1.00
296;DHT22;132;48.770;9.200;2023-02-01T13:58:10;6.70;1.00
296;DHT22;132;48.770;9.200;2023-02-01T14:00:41;7.30;1.00
296;DHT22;132;48.770;9.200;2023-02-01T14:03:13;6.70;1.00
296;DHT22;132;48.770;9.200;2023-02-01T14:08:11;6.60;1.00
296;DHT22;132;48.770;9.200;2023-02-01T14:11:00;6.60;1.00
296;DHT22;132;48.770;9.200;2023-02-01T14:21:24;6.70;1.00
296;DHT22;132;48.770;9.200;2023-02-01T14:23:59;6.80;1.00
296;DHT22;132;48.770;9.200;2023-02-01T14:34:48;6.70;1.00
296;DHT22;132;48.770;9.200;2023-02-01T14:39:56;6.70;1.00
296;DHT22;132;48.770;9.200;2023-02-01T14:42:58;6.70;1.00
296;DHT22;132;48.770;9.200;2023-02-01T14:55:50;6.60;1.00
296;DHT22;132;48.770;9.200;2023-02-01T15:01:04;6.50;1.00
296;DHT22;132;48.770;9.200;2023-02-01T15:06:48;6.60;1.00
296;DHT22;132;48.770;9.200;2023-02-01T15:12:03;6.60;1.00
296;DHT22;132;48.770;9.200;2023-02-01T15:17:34;6.60;1.00
296;DHT22;132;48.770;9.200;2023-02-01T15:20:03;6.50;1.00
296;DHT22;132;48.770;9.200;2023-02-01T15:22:31;6.50;1.00
296;DHT22;132;48.770;9.200;2023-02-01T15:24:59;6.80;1.00
296;DHT22;132;48.770;9.200;2023-02-01T15:27:27;6.50;1.00
296;DHT22;132;48.770;9.200;2023-02-01T15:29:54;6.40;1.00
296;DHT22;132;48.770;9.200;2023-02-01T15:32:38;6.50;1.00
296;DHT22;132;48.770;9.200;2023-02-01T15:35:30;6.50;1.00
296;DHT22;132;48.770;9.200;2023-02-01T15:37:52;6.40;1.00
296;DHT22;132;48.770;9.200;2023-02-01T15:40:20;6.40;1.00
296;DHT22;132;48.770;9.200;2023-02-01T15:42:58;6.40;1.00
296;DHT22;132;48.770;9.200;2023-02-01T15:45:28;6.40;1.00
296;DHT22;132;48.770;9.200;2023-02-01T15:47:57;6.40;1.00
296;DHT22;132;48.770;9.200;2023-02-01T15:50:24;6.40;1.00
296;DHT22;132;48.770;9.200;2023-02-01T15:52:52;6.40;1.00
296;DHT22;132;48.770;9.200;2023-02-01T15:57:51;6.40;1.00
296;DHT22;132;48.770;9.200;2023-02-01T16:03:03;6.40;1.00
296;DHT22;132;48.770;9.200;2023-02-01T16:05:39;6.50;1.00
296;DHT22;132;48.770;9.200;2023-02-01T16:08:20;6.40;1.00
296;DHT22;132;48.770;9.200;2023-02-01T16:10:49;6.40;1.00
296;DHT22;132;48.770;9.200;2023-02-01T16:13:17;6.30;1.00
296;DHT22;132;48.770;9.200;2023-02-01T16:15:44;6.40;1.00
296;DHT22;132;48.770;9.200;2023-02-01T16:18:12;6.30;1.00
296;DHT22;132;48.770;9.200;2023-02-01T16:20:40;6.40;1.00
296;DHT22;132;48.770;9.200;2023-02-01T16:23:08;6.40;1.00
296;DHT22;132;48.770;9.200;2023-02-01T16:25:35;6.40;1.00
296;DHT22;132;48.770;9.200;2023-02-01T16:28:02;6.90;1.00
296;DHT22;132;48.770;9.200;2023-02-01T16:30:29;6.40;1.00
296;DHT22;132;48.770;9.200;2023-02-01T16:32:56;6.40;1.00
296;DHT22;132;48.770;9.200;2023-02-01T16:35:31;6.40;1.00
296;DHT22;132;48.770;9.200;2023-02-01T16:38:05;6.40;1.00
296;DHT22;132;48.770;9.200;2023-02-01T16:40:42;6.40;1.00
296;DHT22;132;48.770;9.200;2023-02-01T16:43:14;6.40;1.00
296;DHT22;132;48.770;9.200;2023-02-01T16:45:42;6.40;1.00
296;DHT22;132;48.770;9.200;2023-02-01T16:48:21;6.30;1.00
296;DHT22;132;48.770;9.200;2023-02-01T16:50:52;6.40;1.00
296;DHT22;132;48.770;9.200;2023-02-01T16:53:20;6.40;1.00
296;DHT22;132;48.770;9.200;2023-02-01T16:55:46;6.30;1.00
296;DHT22;132;48.770;9.200;2023-02-01T16:58:16;6.30;1.00
296;DHT22;132;48.770;9.200;2023-02-01T17:00:43;6.20;1.00
296;DHT22;132;48.770;9.200;2023-02-01T17:03:11;6.20;1.00
296;DHT22;132;48.770;9.200;2023-02-01T17:05:48;6.20;1.00
296;DHT22;132;48.770;9.200;2023-02-01T17:08:30;6.30;1.00
296;DHT22;132;48.770;9.200;2023-02-01T17:10:57;6.10;1.00
296;DHT22;132;48.770;9.200;2023-02-01T17:13:24;6.20;1.00
296;DHT22;132;48.770;9.200;2023-02-01T17:15:58;6.00;1.00
296;DHT22;132;48.770;9.200;2023-02-01T17:18:27;6.00;1.00
296;DHT22;132;48.770;9.200;2023-02-01T17:20:58;6.10;1.00
296;DHT22;132;48.770;9.200;2023-02-01T17:23:25;5.90;1.00
296;DHT22;132;48.770;9.200;2023-02-01T17:25:51;5.90;1.00
296;DHT22;132;48.770;9.200;2023-02-01T17:28:18;6.00;1.00
296;DHT22;132;48.770;9.200;2023-02-01T17:30:45;6.00;1.00
296;DHT22;132;48.770;9.200;2023-02-01T17:35:46;6.10;1.00
296;DHT22;132;48.770;9.200;2023-02-01T17:38:13;6.60;1.00
296;DHT22;132;48.770;9.200;2023-02-01T17:40:40;6.10;1.00
296;DHT22;132;48.770;9.200;2023-02-01T17:43:16;6.10;1.00
296;DHT22;132;48.770;9.200;2023-02-01T17:46:31;6.20;1.00
296;DHT22;132;48.770;9.200;2023-02-01T17:48:32;6.10;1.00
296;DHT22;132;48.770;9.200;2023-02-01T17:50:59;6.10;1.00
296;DHT22;132;48.770;9.200;2023-02-01T17:53:28;6.10;1.00
296;DHT22;132;48.770;9.200;2023-02-01T17:55:55;6.00;1.00
296;DHT22;132;48.770;9.200;2023-02-01T17:58:24;6.00;1.00
296;DHT22;132;48.770;9.200;2023-02-01T18:00:51;6.10;1.00
296;DHT22;132;48.770;9.200;2023-02-01T18:05:48;6.10;1.00
296;DHT22;132;48.770;9.200;2023-02-01T18:08:17;6.00;1.00
296;DHT22;132;48.770;9.200;2023-02-01T18:10:43;6.00;1.00
296;DHT22;132;48.770;9.200;2023-02-01T18:13:11;5.90;1.00
296;DHT22;132;48.770;9.200;2023-02-01T18:15:37;6.00;1.00
296;DHT22;132;48.770;9.200;2023-02-01T18:18:05;6.00;1.00
296;DHT22;132;48.770;9.200;2023-02-01T18:20:32;6.00;1.00
296;DHT22;132;48.770;9.200;2023-02-01T18:23:00;6.00;1.00
296;DHT22;132;48.770;9.200;2023-02-01T18:25:29;6.00;1.00
296;DHT22;132;48.770;9.200;2023-02-01T18:27:59;6.00;1.00
296;DHT22;132;48.770;9.200;2023-02-01T18:30:29;6.10;1.00
296;DHT22;132;48.770;9.200;2023-02-01T18:32:56;6.10;1.00
296;DHT22;132;48.770;9.200;2023-02-01T18:35:26;6.00;1.00
296;DHT22;132;48.770;9.200;2023-02-01T18:37:53;7.50;1.00
296;DHT22;132;48.770;9.200;2023-02-01T18:40:33;6.00;1.00
296;DHT22;132;48.770;9.200;2023-02-01T18:43:00;6.00;1.00
296;DHT22;132;48.770;9.200;2023-02-01T18:45:35;6.00;1.00
296;DHT22;132;48.770;9.200;2023-02-01T18:48:03;6.20;1.00
296;DHT22;132;48.770;9.200;2023-02-01T18:50:31;6.20;1.00
296;DHT22;132;48.770;9.200;2023-02-01T18:53:02;6.10;1.00
296;DHT22;132;48.770;9.200;2023-02-01T18:55:29;6.90;1.00
296;DHT22;132;48.770;9.200;2023-02-01T18:58:00;6.30;1.00
296;DHT22;132;48.770;9.200;2023-02-01T19:00:28;6.20;1.00
296;DHT22;132;48.770;9.200;2023-02-01T19:02:55;6.20;1.00
296;DHT22;132;48.770;9.200;2023-02-01T19:05:21;6.20;1.00
296;DHT22;132;48.770;9.200;2023-02-01T19:07:48;6.20;1.00
296;DHT22;132;48.770;9.200;2023-02-01T19:10:17;6.10;1.00
296;DHT22;132;48.770;9.200;2023-02-01T19:12:43;6.20;1.00
296;DHT22;132;48.770;9.200;2023-02-01T19:15:12;6.20;1.00
296;DHT22;132;48.770;9.200;2023-02-01T19:17:45;6.20;1.00
296;DHT22;132;48.770;9.200;2023-02-01T19:20:14;6.20;1.00
296;DHT22;132;48.770;9.200;2023-02-01T19:22:41;6.30;1.00
296;DHT22;132;48.770;9.200;2023-02-01T19:25:13;6.30;1.00
296;DHT22;132;48.770;9.200;2023-02-01T19:27:40;6.30;1.00
296;DHT22;132;48.770;9.200;2023-02-01T19:30:07;6.20;1.00
296;DHT22;132;48.770;9.200;2023-02-01T19:32:37;6.20;1.00
296;DHT22;132;48.770;9.200;2023-02-01T19:35:04;6.10;1.00
296;DHT22;132;48.770;9.200;2023-02-01T19:37:31;6.20;1.00
296;DHT22;132;48.770;9.200;2023-02-01T19:39:57;6.10;1.00
296;DHT22;132;48.770;9.200;2023-02-01T19:42:25;6.10;1.00
296;DHT22;132;48.770;9.200;2023-02-01T19:44:51;6.10;1.00
296;DHT22;132;48.770;9.200;2023-02-01T19:47:18;6.10;1.00
296;DHT22;132;48.770;9.200;2023-02-01T19:49:44;6.10;1.00
296;DHT22;132;48.770;9.200;2023-02-01T19:52:11;6.10;1.00
296;DHT22;132;48.770;9.200;2023-02-01T19:54:37;6.10;1.00
296;DHT22;132;48.770;9.200;2023-02-01T19:57:04;6.80;1.00
296;DHT22;132;48.770;9.200;2023-02-01T19:59:30;6.10;1.00
296;DHT22;132;48.770;9.200;2023-02-01T20:01:57;6.20;1.00
296;DHT22;132;48.770;9.200;2023-02-01T20:04:23;6.00;1.00
296;DHT22;132;48.770;9.200;2023-02-01T20:06:50;6.20;1.00
296;DHT22;132;48.770;9.200;2023-02-01T20:09:21;6.20;1.00
296;DHT22;132;48.770;9.200;2023-02-01T20:11:48;6.20;1.00
296;DHT22;132;48.770;9.200;2023-02-01T20:14:16;6.20;1.00
296;DHT22;132;48.770;9.200;2023-02-01T20:16:43;6.20;1.00
296;DHT22;132;48.770;9.200;2023-02-01T20:19:10;6.10;1.00
296;DHT22;132;48.770;9.200;2023-02-01T20:21:37;6.20;1.00
296;DHT22;132;48.770;9.200;2023-02-01T20:24:05;6.10;1.00
296;DHT22;132;48.770;9.200;2023-02-01T20:26:32;6.20;1.00